Latest Weather Observations for Gabo Island

IDN60801

Issued at 10:32 am EST Thursday 2 July 2015 (issued every 30 minutes, with the page automatically refreshed every 10 minutes)

About weather observations | Map of weather stations | Latest weather observations for NSW | Other Formats
Station Details ID: 084016 Name: GABO ISLAND LIGHTHOUSE Lat: -37.57 Lon: 149.92 Height: 15.2 m
Data from the previous 72 hours. | See also: Recent months at Gabo Island
Date/Time
EST
Temp
°C
App
Temp
°C
Dew
Point
Rel
Hum
%
Delta-T
°C
Wind Press
QNH
hPa
Press
MSL
hPa
Rain
since 9 am
mm
Dir
 
Spd
km/h
Gust
km/h
Spd
kts
Gust
kts
02/10:30am 11.1 3.9 7.6 79 1.7 W 35 43 19 23 1016.5 - 0.0
02/10:00am 10.9 2.2 7.8 81 1.5 W 43 54 23 29 1016.6 - 0.0
02/09:30am 11.1 1.5 8.0 81 1.5 WSW 48 61 26 33 1016.6 - 0.0
02/09:00am 11.4 -0.1 8.8 84 1.3 SW 59 76 32 41 1016.2 1016.2 0.8
02/08:59am 11.3 0.2 8.7 84 1.3 SW 57 76 31 41 1016.2 - 0.8
02/08:41am 11.8 -1.0 7.9 77 1.9 SW 65 74 35 40 1016.0 - 0.0
02/08:38am 12.6 4.7 6.3 65 3.0 WSW 37 56 20 30 1016.0 - 0.0
02/08:30am 12.3 3.8 5.1 61 3.3 WSW 39 46 21 25 1015.8 - 0.0
02/08:16am 12.1 4.6 3.3 55 3.9 W 32 50 17 27 1015.3 - 0.0
02/08:00am 11.1 5.8 1.6 52 4.0 NW 19 26 10 14 1015.0 - 0.0
02/07:30am 10.3 5.0 1.7 55 3.6 NW 19 26 10 14 1014.9 - 0.0
02/07:00am 10.5 4.5 0.8 51 4.0 NW 22 30 12 16 1014.9 - 0.0
02/06:30am 10.3 4.3 0.8 51 3.9 NW 22 35 12 19 1014.4 - 0.0
02/06:00am 10.2 4.6 1.0 53 3.8 NW 20 30 11 16 1014.6 1014.6 0.0
02/05:30am 10.2 4.1 0.7 51 3.9 NW 22 33 12 18 1014.7 - 0.0
02/05:00am 10.1 4.0 0.5 51 3.9 NW 22 33 12 18 1015.1 - 0.0
02/04:30am 10.3 4.7 0.2 49 4.1 NW 19 30 10 16 1015.3 - 0.0
02/04:00am 10.3 4.6 0.5 50 4.0 NW 20 28 11 15 1015.6 - 0.0
02/03:30am 9.9 4.4 0.9 53 3.7 NW 19 26 10 14 1016.3 - 0.0
02/03:00am 10.6 5.5 0.9 51 4.0 NW 17 22 9 12 1016.8 1016.8 0.0
02/02:30am 10.6 5.4 0.3 49 4.2 NNW 17 24 9 13 1017.1 - 0.0
02/02:00am 11.0 5.4 0.2 47 4.4 NNW 19 26 10 14 1017.5 - 0.0
02/01:30am 10.4 4.9 0.9 52 3.9 NNW 19 28 10 15 1017.8 - 0.0
02/01:00am 10.5 5.0 1.7 54 3.7 NW 20 28 11 15 1018.3 - 0.0
02/12:30am 10.4 5.3 3.0 60 3.2 NW 19 30 10 16 1018.9 - 0.0
02/12:00am 9.7 6.1 5.0 72 2.1 NNW 13 24 7 13 1019.4 1019.5 0.0
 
Date/Time
EST
Temp
°C
App
Temp
°C
Dew
Point
Rel
Hum
%
Delta-T
°C
Wind Press
QNH
hPa
Press
MSL
hPa
Rain
since 9 am
mm
Dir
 
Spd
km/h
Gust
km/h
Spd
kts
Gust
kts
01/11:30pm 9.4 6.0 5.7 78 1.7 NNW 13 19 7 10 1019.5 - 0.0
01/11:00pm 9.2 5.8 5.9 80 1.5 NNW 13 20 7 11 1020.0 - 0.0
01/10:30pm 9.1 5.3 6.0 81 1.4 NNW 15 19 8 10 1020.2 - 0.0
01/10:00pm 9.2 5.4 5.9 80 1.5 NNW 15 22 8 12 1020.8 - 0.0
01/09:30pm 9.6 5.9 6.1 79 1.6 WNW 15 20 8 11 1021.3 - 0.0
01/09:00pm 9.9 6.1 6.0 77 1.8 NW 15 20 8 11 1021.4 1021.4 0.0
01/08:30pm 10.2 6.1 6.1 76 1.9 WNW 17 22 9 12 1021.6 - 0.0
01/08:00pm 10.0 6.9 5.4 73 2.1 WNW 11 17 6 9 1021.8 - 0.0
01/07:30pm 10.6 7.3 6.5 76 1.9 WNW 13 19 7 10 1021.9 - 0.0
01/07:00pm 10.8 7.1 6.5 75 2.0 W 15 22 8 12 1021.9 - 0.0
01/06:30pm 10.8 7.9 6.5 75 2.0 WNW 11 15 6 8 1021.5 - 0.0
01/06:00pm 12.0 6.7 6.7 70 2.5 W 24 30 13 16 1021.4 1021.5 0.0
01/05:30pm 12.0 6.2 6.3 68 2.7 WSW 26 32 14 17 1021.6 - 0.0
01/05:00pm 12.3 5.8 6.4 67 2.8 WSW 30 35 16 19 1021.3 - 0.0
01/04:30pm 12.5 5.8 5.6 63 3.2 WSW 30 37 16 20 1021.5 - 0.0
01/04:00pm 13.1 5.4 5.4 59 3.6 WSW 35 41 19 22 1021.6 - 0.0
01/03:30pm 13.6 6.8 6.7 63 3.3 SW 32 39 17 21 1021.6 - 0.0
01/03:00pm 14.0 7.8 6.0 58 3.8 W 28 35 15 19 1021.7 1021.7 0.0
01/02:30pm 14.1 8.7 6.4 60 3.7 WSW 24 32 13 17 1021.8 - 0.0
01/02:00pm 14.2 7.7 6.5 60 3.7 WSW 30 37 16 20 1022.1 - 0.0
01/01:30pm 14.2 7.6 6.0 58 3.9 WSW 30 37 16 20 1022.6 - 0.0
01/01:00pm 13.3 7.6 6.6 64 3.2 WSW 26 32 14 17 1023.2 - 0.0
01/12:30pm 13.9 7.8 6.6 61 3.5 WSW 28 35 15 19 1023.7 - 0.0
01/12:00pm 13.9 7.8 6.6 61 3.5 W 28 37 15 20 1024.2 1024.3 0.0
01/11:30am 13.7 7.3 6.8 63 3.3 W 30 35 16 19 1024.6 - 0.0
01/11:00am 13.3 6.2 6.6 64 3.2 W 33 43 18 23 1025.2 - 0.0
01/10:30am 12.9 5.5 6.8 66 2.9 W 35 43 19 23 1025.5 - 0.0
01/10:00am 12.6 6.3 7.2 69 2.6 W 30 39 16 21 1025.7 - 0.0
01/09:30am 12.0 5.7 7.4 73 2.2 W 30 41 16 22 1025.9 - 0.0
01/09:00am 11.1 4.2 6.6 74 2.1 W 32 39 17 21 1025.8 1025.8 0.0
01/08:30am 10.7 4.2 6.6 76 1.9 W 30 37 16 20 1025.8 - 0.0
01/08:00am 10.6 3.5 6.3 75 2.0 W 33 46 18 25 1025.6 - 0.0
01/07:30am 10.5 2.6 6.4 76 1.9 W 37 46 20 25 1025.5 - 0.0
01/07:00am 10.3 3.1 5.9 74 2.0 W 33 41 18 22 1025.3 - 0.0
01/06:30am 10.2 3.1 6.3 77 1.8 W 33 41 18 22 1025.1 - 0.0
01/06:00am 10.0 4.2 6.3 78 1.7 W 26 33 14 18 1025.1 1025.1 0.0
01/05:30am 9.9 4.1 6.4 79 1.6 W 26 35 14 19 1024.9 - 0.0
01/05:00am 9.6 3.8 6.1 79 1.6 WNW 26 33 14 18 1024.7 - 0.0
01/04:30am 9.7 3.5 6.0 78 1.7 W 28 41 15 22 1024.5 - 0.0
01/04:00am 9.7 3.4 5.5 75 1.9 W 28 37 15 20 1024.7 - 0.0
01/03:30am 9.6 4.0 5.4 75 1.9 WNW 24 33 13 18 1024.8 - 0.0
01/03:00am 9.7 4.5 5.3 74 2.0 WNW 22 28 12 15 1025.0 1025.1 0.0
01/02:30am 9.6 4.0 5.4 75 1.9 W 24 30 13 16 1025.2 - 0.0
01/02:00am 9.4 3.7 4.7 72 2.1 WNW 24 30 13 16 1025.3 - 0.0
01/01:30am 9.6 3.5 4.6 71 2.2 W 26 32 14 17 1025.5 - 0.0
01/01:00am 9.3 4.3 4.8 73 2.0 WNW 20 26 11 14 1025.7 - 0.0
01/12:30am 9.3 4.4 5.0 74 1.9 WNW 20 26 11 14 1025.8 - 0.0
01/12:00am 9.6 4.3 4.9 72 2.1 WNW 22 28 12 15 1026.1 1026.1 0.0
 
Date/Time
EST
Temp
°C
App
Temp
°C
Dew
Point
Rel
Hum
%
Delta-T
°C
Wind Press
QNH
hPa
Press
MSL
hPa
Rain
since 9 am
mm
Dir
 
Spd
km/h
Gust
km/h
Spd
kts
Gust
kts
30/11:30pm 9.5 4.3 5.3 75 1.9 WNW 22 28 12 15 1026.1 - 0.0
30/11:00pm 9.6 4.7 5.1 73 2.0 WNW 20 30 11 16 1026.1 - 0.0
30/10:30pm 9.6 4.7 5.1 73 2.0 WNW 20 28 11 15 1026.1 - 0.0
30/10:00pm 9.7 4.5 5.5 75 1.9 WNW 22 28 12 15 1026.1 - 0.0
30/09:30pm 9.8 4.6 5.6 75 1.9 WNW 22 30 12 16 1026.2 - 0.0
30/09:00pm 9.7 4.5 5.7 76 1.8 WNW 22 30 12 16 1026.4 1026.4 0.0
30/08:30pm 9.6 4.5 5.9 78 1.7 WNW 22 28 12 15 1026.5 - 0.0
30/08:00pm 9.8 4.8 6.3 79 1.6 WNW 22 30 12 16 1026.6 - 0.0
30/07:30pm 9.8 4.7 6.1 78 1.7 W 22 32 12 17 1026.6 - 0.0
30/07:00pm 10.6 4.7 6.0 73 2.1 W 26 39 14 21 1026.3 - 0.0
30/06:30pm 11.0 4.0 6.0 71 2.3 W 32 41 17 22 1026.2 - 0.0
30/06:00pm 11.3 4.3 5.9 69 2.5 WSW 32 37 17 20 1026.0 1026.0 0.0
30/05:30pm 11.7 4.2 6.4 70 2.5 WSW 35 43 19 23 1025.8 - 0.0
30/05:00pm 12.1 4.8 7.3 72 2.3 SW 35 41 19 22 1025.5 - 0.0
30/04:30pm 12.4 4.5 7.9 74 2.2 SW 39 46 21 25 1025.1 - 0.0
30/04:00pm 12.5 4.7 8.2 75 2.1 SW 39 46 21 25 1024.8 - 0.0
30/03:30pm 13.0 6.0 8.6 74 2.2 SW 35 43 19 23 1024.6 - 0.0
30/03:00pm 13.1 5.7 8.5 73 2.3 SW 37 43 20 23 1024.8 1024.8 0.0
30/02:30pm 12.8 5.0 8.1 73 2.3 SW 39 44 21 24 1024.9 - 0.0
30/02:00pm 12.7 6.1 8.5 75 2.1 SW 33 39 18 21 1024.9 - 0.0
30/01:30pm 12.9 7.7 8.7 75 2.1 SW 26 32 14 17 1025.1 - 0.0
30/01:00pm 13.2 9.6 8.4 72 2.4 W 17 20 9 11 1025.5 - 0.0
30/12:30pm 12.2 8.0 8.1 76 2.0 W 20 24 11 13 1026.1 - 0.0
30/12:00pm 11.9 7.2 7.8 76 2.0 W 22 30 12 16 1026.4 1026.3 0.0
30/11:30am 11.8 7.1 7.7 76 2.0 W 22 28 12 15 1026.7 - 0.0
30/11:00am 12.3 8.0 8.0 75 2.1 W 20 26 11 14 1027.0 - 0.0
30/10:30am 11.8 7.1 7.7 76 2.0 W 22 28 12 15 1027.6 - 0.0
30/10:00am 11.1 6.3 7.5 78 1.7 W 22 26 12 14 1027.8 - 0.0
30/09:30am 10.8 6.5 7.7 81 1.5 W 20 26 11 14 1027.9 - 0.0
30/09:00am 10.3 5.1 7.3 82 1.4 WNW 24 28 13 15 1028.0 1028.1 0.0
30/08:30am 9.8 5.0 7.5 85 1.1 WNW 22 26 12 14 1027.9 - 0.0
30/08:00am 9.8 6.0 7.7 87 1.0 WNW 17 24 9 13 1027.9 - 0.0
30/07:30am 10.0 5.9 7.7 86 1.1 WNW 19 24 10 13 1027.9 - 0.0
30/07:00am 9.9 5.7 7.6 85 1.1 WNW 19 24 10 13 1028.1 - 0.0
30/06:30am 9.8 5.7 7.7 87 1.0 WNW 19 24 10 13 1027.8 - 0.0
30/06:00am 9.7 5.6 7.8 88 0.9 WNW 19 24 10 13 1027.7 1027.6 0.0
30/05:30am 9.4 5.6 7.7 89 0.8 WNW 17 20 9 11 1027.5 - 0.0
30/05:00am 9.3 5.6 7.8 90 0.7 WNW 17 19 9 10 1027.4 - 0.0
30/04:30am 9.6 5.8 7.7 88 0.9 WNW 17 19 9 10 1027.6 - 0.0
30/04:00am 9.7 5.9 7.6 87 1.0 WNW 17 20 9 11 1027.8 - 0.0
30/03:30am 10.0 6.2 7.7 86 1.1 W 17 20 9 11 1028.0 - 0.0
30/03:00am 10.3 6.6 7.8 84 1.2 WNW 17 19 9 10 1028.3 1028.3 0.0
30/02:30am 10.5 7.2 8.2 86 1.1 WNW 15 19 8 10 1028.5 - 0.0
30/02:00am 10.5 7.2 8.2 86 1.1 W 15 17 8 9 1028.5 - 0.0
30/01:30am 10.3 7.4 8.2 87 1.0 W 13 15 7 8 1028.6 - 0.0
30/01:00am 10.4 7.1 8.1 86 1.1 WNW 15 17 8 9 1028.7 - 0.0
30/12:30am 9.8 7.2 7.9 88 0.9 WNW 11 15 6 8 1028.9 - 0.0
30/12:00am 9.7 6.4 8.0 89 0.8 W 15 17 8 9 1029.1 1029.2 0.0
 
Date/Time
EST
Temp
°C
App
Temp
°C
Dew
Point
Rel
Hum
%
Delta-T
°C
Wind Press
QNH
hPa
Press
MSL
hPa
Rain
since 9 am
mm
Dir
 
Spd
km/h
Gust
km/h
Spd
kts
Gust
kts
29/11:30pm 9.7 6.7 7.8 88 0.9 W 13 15 7 8 1029.4 - 0.0
29/11:00pm 10.1 7.2 8.0 87 1.0 W 13 17 7 9 1029.6 - 0.0
29/10:30pm 9.8 6.8 7.7 87 1.0 WNW 13 15 7 8 1030.2 - 0.0
29/10:00pm 9.9 6.9 7.6 85 1.1 W 13 15 7 8 1030.4 - 0.0
29/09:30pm 10.2 7.3 8.1 87 1.0 W 13 17 7 9 1030.6 - 0.0
29/09:00pm 11.6 9.2 8.5 81 1.5 W 11 15 6 8 1030.8 1030.9 0.0
29/08:30pm 11.2 8.6 9.2 87 1.0 WSW 13 17 7 9 1031.1 - 0.0
29/08:00pm 11.2 8.2 7.9 80 1.6 WNW 13 15 7 8 1031.3 - 0.0
29/07:30pm 11.3 8.4 8.2 81 1.5 WNW 13 15 7 8 1031.3 - 0.0
29/07:00pm 11.6 8.7 8.3 80 1.6 W 13 17 7 9 1031.2 - 0.0
29/06:30pm 12.4 9.3 8.8 79 1.8 WSW 15 20 8 11 1030.8 - 0.0
29/06:00pm 12.7 9.5 8.4 75 2.1 SW 15 19 8 10 1030.6 1030.7 0.0
29/05:30pm 12.7 8.7 8.2 74 2.2 SW 19 22 10 12 1030.3 - 0.0
29/05:00pm 12.9 8.8 8.0 72 2.4 SW 19 22 10 12 1030.4 - 0.0
29/04:30pm 13.1 9.0 8.0 71 2.5 SW 19 24 10 13 1030.5 - 0.0
29/04:00pm 13.4 9.1 7.9 69 2.7 SSW 20 28 11 15 1030.3 - 0.0
29/03:30pm 13.7 9.6 7.8 67 2.9 SSW 19 22 10 12 1030.4 - 0.0
29/03:00pm 13.8 10.0 7.7 66 3.0 SSW 17 20 9 11 1030.2 1030.3 0.0
29/02:30pm 13.9 10.1 7.5 65 3.1 SSW 17 22 9 12 1030.1 - 0.0
29/02:00pm 13.8 9.9 7.2 64 3.2 SW 17 20 9 11 1030.4 - 0.0
29/01:30pm 14.0 10.7 8.1 67 2.9 SSW 15 20 8 11 1030.7 - 0.0
29/01:00pm 13.7 10.7 7.8 67 2.9 WSW 13 19 7 10 1030.9 - 0.0
29/12:30pm 13.5 10.0 7.3 66 3.0 WSW 15 19 8 10 1031.3 - 0.0
29/12:00pm 13.5 9.2 7.1 65 3.1 W 19 24 10 13 1031.7 1031.9 0.0
29/11:30am 13.7 9.3 6.6 62 3.4 W 19 24 10 13 1032.2 - 0.0
29/11:00am 13.1 9.0 6.3 63 3.2 WNW 17 22 9 12 1032.7 - 0.0

Other Formats:

Comma delimited format used in spreadsheet applications
http://www.bom.gov.au/fwo/IDN60801/IDN60801.94933.axf

JavaScript Object Notation format (JSON) in row-major order
http://www.bom.gov.au/fwo/IDN60801/IDN60801.94933.json